createdAt,value
2019-05-07T00:02:26.084Z,5.87
2019-05-07T00:04:54.566Z,7.03
2019-05-07T00:07:23.030Z,8.43
2019-05-07T00:09:52.604Z,6.27
2019-05-07T00:12:23.019Z,4.73
2019-05-07T00:15:00.548Z,7.87
2019-05-07T00:17:22.876Z,6.93
2019-05-07T00:19:52.615Z,7.23
2019-05-07T00:22:22.732Z,6.63
2019-05-07T00:24:52.145Z,5.73
2019-05-07T00:27:22.604Z,5.77
2019-05-07T00:29:52.093Z,7.30
2019-05-07T00:32:22.159Z,7.27
2019-05-07T00:34:54.285Z,7.77
2019-05-07T00:37:26.876Z,7.43
2019-05-07T00:40:02.874Z,6.10
2019-05-07T00:42:32.998Z,8.30
2019-05-07T00:45:16.987Z,5.60
2019-05-07T00:47:36.294Z,8.07
2019-05-07T00:50:08.158Z,9.63
2019-05-07T00:52:36.631Z,6.90
2019-05-07T00:55:06.766Z,7.97
2019-05-07T00:57:35.236Z,8.67
2019-05-07T01:00:05.871Z,9.53
2019-05-07T01:02:34.343Z,9.13
2019-05-07T01:05:03.185Z,8.50
2019-05-07T01:07:32.464Z,8.20
2019-05-07T01:10:02.206Z,5.93
2019-05-07T01:12:32.847Z,8.30
2019-05-07T01:15:02.990Z,6.50
2019-05-07T01:17:33.346Z,6.80
2019-05-07T01:20:02.899Z,9.40
2019-05-07T01:22:33.075Z,7.50
2019-05-07T01:25:02.339Z,7.67
2019-05-07T01:27:32.136Z,10.47
2019-05-07T01:30:02.515Z,7.07
2019-05-07T01:32:33.167Z,12.27
2019-05-07T01:35:03.345Z,7.10
2019-05-07T01:37:32.588Z,6.53
2019-05-07T01:40:03.015Z,8.17
2019-05-07T01:42:32.667Z,9.13
2019-05-07T01:45:02.432Z,9.27
2019-05-07T01:47:33.172Z,11.10
2019-05-07T01:50:03.001Z,8.57
2019-05-07T01:52:33.133Z,7.37
2019-05-07T01:55:03.275Z,8.57
2019-05-07T01:57:32.581Z,8.83
2019-05-07T02:00:02.570Z,9.27
2019-05-07T02:02:52.032Z,8.23
2019-05-07T02:05:22.918Z,8.07
2019-05-07T02:07:53.127Z,7.30
2019-05-07T02:10:23.227Z,8.97
2019-05-07T02:12:52.641Z,7.87
2019-05-07T02:15:22.623Z,8.77
2019-05-07T02:17:52.552Z,8.87
2019-05-07T02:20:22.516Z,8.73
2019-05-07T02:22:53.038Z,7.80
2019-05-07T02:25:22.102Z,8.93
2019-05-07T02:27:52.745Z,8.10
2019-05-07T02:30:23.773Z,9.77
2019-05-07T02:32:53.948Z,11.23
2019-05-07T02:35:23.481Z,8.07
2019-05-07T02:37:56.828Z,8.30
2019-05-07T02:40:28.819Z,7.97
2019-05-07T02:42:57.292Z,6.43
2019-05-07T02:45:45.743Z,7.90
2019-05-07T02:48:15.642Z,7.60
2019-05-07T02:50:45.731Z,8.17
2019-05-07T02:53:22.790Z,9.53
2019-05-07T02:55:53.185Z,8.97
2019-05-07T02:58:23.992Z,8.43
2019-05-07T03:00:53.221Z,8.83
2019-05-07T03:03:24.623Z,8.63
2019-05-07T03:05:53.753Z,9.87
2019-05-07T03:08:26.917Z,9.57
2019-05-07T03:10:53.047Z,9.23
2019-05-07T03:13:23.689Z,11.10
2019-05-07T03:15:53.983Z,9.70
2019-05-07T03:18:23.280Z,9.30
2019-05-07T03:20:53.914Z,9.37
2019-05-07T03:23:24.028Z,9.27
2019-05-07T03:25:57.473Z,9.10
2019-05-07T03:28:26.582Z,10.27
2019-05-07T03:31:16.870Z,9.60
2019-05-07T03:33:47.169Z,10.50
2019-05-07T03:36:17.107Z,9.90
2019-05-07T03:38:45.757Z,11.17
2019-05-07T03:41:14.265Z,10.30
2019-05-07T03:43:43.543Z,13.80
2019-05-07T03:46:14.326Z,10.83
2019-05-07T03:48:44.376Z,10.27
2019-05-07T03:51:13.359Z,12.67
2019-05-07T03:53:43.565Z,11.47
2019-05-07T03:56:13.033Z,11.37
2019-05-07T03:58:43.383Z,12.83
2019-05-07T04:01:13.388Z,11.60
2019-05-07T04:03:44.579Z,12.60
2019-05-07T04:06:12.978Z,12.90
2019-05-07T04:08:43.190Z,9.93
2019-05-07T04:11:13.996Z,11.27
2019-05-07T04:13:44.092Z,13.93
2019-05-07T04:16:13.571Z,12.57
2019-05-07T04:18:43.651Z,13.93
2019-05-07T04:21:13.936Z,13.23
2019-05-07T04:23:43.797Z,11.70
2019-05-07T04:26:17.048Z,13.63
2019-05-07T04:28:59.281Z,12.50
2019-05-07T04:31:29.405Z,13.20
2019-05-07T04:33:59.494Z,12.97
2019-05-07T04:36:29.530Z,14.53
2019-05-07T04:38:57.987Z,11.77
2019-05-07T04:41:26.480Z,12.40
2019-05-07T04:43:54.944Z,13.63
2019-05-07T04:46:23.861Z,15.90
2019-05-07T04:48:52.973Z,15.37
2019-05-07T04:51:23.411Z,12.20
2019-05-07T04:53:54.156Z,15.20
2019-05-07T04:56:23.857Z,15.57
2019-05-07T04:58:53.256Z,14.40
2019-05-07T05:01:23.787Z,15.97
2019-05-07T05:03:54.020Z,13.90
2019-05-07T05:06:24.208Z,15.80
2019-05-07T05:08:56.054Z,15.20
2019-05-07T05:11:23.883Z,13.97
2019-05-07T05:13:53.311Z,14.93
2019-05-07T05:16:25.871Z,12.87
2019-05-07T05:18:55.883Z,14.33
2019-05-07T05:21:38.577Z,15.80
2019-05-07T05:24:08.677Z,14.07
2019-05-07T05:26:37.173Z,15.20
2019-05-07T05:29:05.658Z,13.97
2019-05-07T05:31:34.145Z,12.47
2019-05-07T05:34:02.594Z,16.27
2019-05-07T05:36:33.029Z,11.53
2019-05-07T05:39:02.488Z,13.73
2019-05-07T05:41:34.136Z,13.10
2019-05-07T05:44:13.040Z,14.00
2019-05-07T05:46:42.878Z,14.87
2019-05-07T05:49:11.892Z,13.73
2019-05-07T05:51:45.135Z,11.67
2019-05-07T05:54:23.979Z,10.23
2019-05-07T05:56:54.129Z,15.17
2019-05-07T05:59:32.473Z,12.67
2019-05-07T06:04:45.695Z,10.87
2019-05-07T06:07:33.984Z,15.17
2019-05-07T06:10:06.636Z,10.70
2019-05-07T06:12:42.892Z,11.80
2019-05-07T06:15:29.741Z,11.73
2019-05-07T06:18:06.887Z,9.57
2019-05-07T06:20:34.313Z,14.27
2019-05-07T06:23:22.554Z,11.17
2019-05-07T06:25:52.371Z,9.13
2019-05-07T06:28:22.335Z,11.47
2019-05-07T06:30:52.725Z,12.57
2019-05-07T06:33:22.936Z,8.27
2019-05-07T06:35:52.128Z,12.03
2019-05-07T06:38:22.205Z,8.77
2019-05-07T06:40:55.176Z,10.10
2019-05-07T06:43:25.328Z,9.53
2019-05-07T06:45:55.486Z,10.40
2019-05-07T06:48:37.704Z,8.50
2019-05-07T06:50:57.636Z,8.07
2019-05-07T06:53:33.321Z,10.53
2019-05-07T06:56:03.017Z,9.37
2019-05-07T06:58:33.297Z,7.00
2019-05-07T07:01:03.425Z,7.30
2019-05-07T07:03:48.818Z,8.53
2019-05-07T07:06:24.674Z,5.83
2019-05-07T07:09:03.721Z,8.60
2019-05-07T07:11:33.974Z,6.57
2019-05-07T07:14:02.709Z,6.37
2019-05-07T07:16:32.601Z,5.47
2019-05-07T07:19:03.354Z,6.37
2019-05-07T07:21:32.699Z,8.67
2019-05-07T07:24:03.033Z,5.93
2019-05-07T07:26:32.814Z,8.57
2019-05-07T07:29:01.985Z,6.37
2019-05-07T07:31:32.393Z,9.17
2019-05-07T07:34:02.635Z,5.67
2019-05-07T07:36:32.743Z,4.77
2019-05-07T07:39:02.071Z,5.53
2019-05-07T07:41:38.062Z,6.27
2019-05-07T07:44:06.593Z,3.50
2019-05-07T07:46:35.093Z,4.35
2019-05-07T07:49:10.714Z,4.87
2019-05-07T07:51:41.126Z,4.90
2019-05-07T07:54:04.186Z,3.27
2019-05-07T07:56:50.117Z,5.45
2019-05-07T07:59:33.247Z,3.42
2019-05-07T08:02:03.365Z,4.83
2019-05-07T08:04:32.169Z,4.92
2019-05-07T08:07:03.529Z,5.20
2019-05-07T08:09:34.295Z,3.67
2019-05-07T08:12:03.466Z,3.35
2019-05-07T08:14:32.619Z,3.75
2019-05-07T08:17:02.819Z,5.83
2019-05-07T08:19:32.858Z,5.08
2019-05-07T08:22:02.805Z,3.70
2019-05-07T08:24:32.302Z,6.55
2019-05-07T08:27:02.477Z,3.70
2019-05-07T08:29:32.479Z,3.62
2019-05-07T08:32:06.946Z,4.35
2019-05-07T08:34:37.051Z,3.92
2019-05-07T08:37:05.535Z,3.80
2019-05-07T08:39:33.992Z,3.87
2019-05-07T08:42:02.521Z,4.80
2019-05-07T08:44:51.963Z,4.25
2019-05-07T08:47:42.546Z,5.17
2019-05-07T08:50:12.302Z,7.53
2019-05-07T08:52:41.981Z,4.55
2019-05-07T08:55:12.616Z,4.42
2019-05-07T08:57:42.064Z,5.50
2019-05-07T09:00:12.481Z,6.92
2019-05-07T09:02:42.117Z,4.30
2019-05-07T09:05:11.945Z,3.87
2019-05-07T09:07:42.583Z,5.60
2019-05-07T09:10:12.655Z,4.00
2019-05-07T09:12:42.987Z,5.45
2019-05-07T09:15:12.441Z,4.15
2019-05-07T09:17:42.320Z,6.62
2019-05-07T09:20:12.520Z,11.03
2019-05-07T09:22:42.696Z,4.90
2019-05-07T09:25:12.899Z,4.87
2019-05-07T09:27:43.253Z,3.77
2019-05-07T09:30:32.487Z,3.65
2019-05-07T09:33:12.498Z,3.90
2019-05-07T09:35:42.757Z,3.75
2019-05-07T09:38:12.158Z,5.00
2019-05-07T09:40:42.171Z,6.70
2019-05-07T09:43:11.714Z,8.53
2019-05-07T09:45:42.106Z,5.67
2019-05-07T09:48:11.994Z,4.43
2019-05-07T09:50:42.755Z,2.77
2019-05-07T09:53:12.803Z,4.27
2019-05-07T09:55:42.567Z,4.33
2019-05-07T09:58:12.591Z,6.13
2019-05-07T10:00:43.339Z,6.90
2019-05-07T10:03:13.718Z,5.47
2019-05-07T10:05:42.939Z,3.13
2019-05-07T10:08:12.953Z,4.93
2019-05-07T10:10:42.946Z,4.33
2019-05-07T10:13:13.264Z,2.83
2019-05-07T10:15:41.867Z,5.25
2019-05-07T10:18:14.696Z,3.65
2019-05-07T10:20:43.318Z,3.27
2019-05-07T10:23:13.603Z,3.30
2019-05-07T10:25:42.082Z,7.15
2019-05-07T10:28:12.456Z,9.60
2019-05-07T10:30:42.756Z,7.90
2019-05-07T10:33:12.357Z,3.20
2019-05-07T10:35:43.300Z,5.87
2019-05-07T10:38:12.466Z,5.50
2019-05-07T10:40:41.287Z,3.37
2019-05-07T10:43:10.214Z,2.97
2019-05-07T10:45:56.867Z,3.47
2019-05-07T10:48:42.138Z,4.00
2019-05-07T10:51:10.621Z,3.37
2019-05-07T10:53:39.094Z,5.73
2019-05-07T10:56:07.588Z,3.67
2019-05-07T10:58:36.059Z,3.50
2019-05-07T11:01:05.562Z,3.60
2019-05-07T11:03:34.030Z,3.83
2019-05-07T11:06:02.473Z,2.77
2019-05-07T11:08:32.990Z,3.83
2019-05-07T11:11:02.963Z,4.13
2019-05-07T11:13:31.641Z,7.07
2019-05-07T11:16:02.475Z,5.17
2019-05-07T11:18:32.698Z,4.63
2019-05-07T11:21:03.023Z,7.77
2019-05-07T11:23:32.782Z,4.37
2019-05-07T11:26:02.535Z,2.93
2019-05-07T11:28:32.425Z,3.83
2019-05-07T11:31:02.053Z,5.20
2019-05-07T11:33:32.622Z,7.13
2019-05-07T11:36:02.111Z,6.33
2019-05-07T11:38:33.175Z,2.50
2019-05-07T11:41:02.347Z,3.77
2019-05-07T11:43:38.704Z,4.00
2019-05-07T11:46:13.100Z,4.47
2019-05-07T11:48:43.417Z,5.37
2019-05-07T11:51:28.729Z,1.83
2019-05-07T11:54:13.575Z,4.73
2019-05-07T11:56:42.566Z,3.80
2019-05-07T11:59:13.413Z,2.70
2019-05-07T12:01:47.489Z,7.90
2019-05-07T12:04:13.794Z,4.30
2019-05-07T12:06:42.315Z,4.80
2019-05-07T12:09:12.136Z,4.10
2019-05-07T12:11:42.616Z,5.00
2019-05-07T12:14:12.318Z,4.23
2019-05-07T12:16:42.582Z,4.40
2019-05-07T12:19:13.049Z,5.23
2019-05-07T12:21:42.187Z,5.10
2019-05-07T12:24:12.542Z,2.97
2019-05-07T12:26:42.298Z,6.83
2019-05-07T12:29:11.852Z,3.93
2019-05-07T12:32:02.504Z,2.87
2019-05-07T12:34:32.450Z,5.07
2019-05-07T12:37:01.692Z,4.20
2019-05-07T12:39:31.875Z,2.97
2019-05-07T12:42:01.383Z,3.43
2019-05-07T12:44:31.864Z,3.40
2019-05-07T12:47:01.949Z,2.53
2019-05-07T12:49:32.392Z,4.13
2019-05-07T12:52:02.437Z,4.07
2019-05-07T12:54:39.419Z,2.80
2019-05-07T12:57:07.905Z,3.17
2019-05-07T12:59:36.355Z,5.43
2019-05-07T13:02:27.005Z,4.30
2019-05-07T13:04:46.295Z,3.40
2019-05-07T13:07:25.302Z,5.13
2019-05-07T13:09:54.526Z,7.10
2019-05-07T13:12:23.027Z,4.50
2019-05-07T13:14:52.165Z,3.50
2019-05-07T13:17:22.470Z,4.50
2019-05-07T13:19:52.459Z,5.33
2019-05-07T13:22:21.947Z,3.40
2019-05-07T13:24:52.749Z,2.77
2019-05-07T13:27:20.778Z,7.87
2019-05-07T13:29:49.788Z,3.83
2019-05-07T13:32:19.597Z,3.57
2019-05-07T13:34:48.233Z,4.17
2019-05-07T13:37:18.488Z,7.27
2019-05-07T13:39:54.719Z,9.57
2019-05-07T13:42:34.068Z,5.47
2019-05-07T13:45:04.244Z,4.63
2019-05-07T13:47:34.706Z,6.60
2019-05-07T13:50:03.337Z,6.43
2019-05-07T13:52:33.234Z,4.13
2019-05-07T13:55:01.714Z,5.27
2019-05-07T13:57:32.100Z,4.53
2019-05-07T14:00:04.702Z,3.57
2019-05-07T14:02:32.288Z,6.47
2019-05-07T14:05:01.036Z,5.63
2019-05-07T14:07:32.272Z,6.80
2019-05-07T14:10:02.134Z,7.57
2019-05-07T14:12:33.495Z,6.87
2019-05-07T14:15:02.156Z,4.17
2019-05-07T14:17:30.824Z,2.53
2019-05-07T14:19:59.293Z,4.23
2019-05-07T14:22:27.781Z,5.00
2019-05-07T14:24:56.235Z,3.30
2019-05-07T14:27:24.712Z,3.53
2019-05-07T14:29:53.178Z,4.33
2019-05-07T14:32:26.289Z,3.93
2019-05-07T14:35:08.695Z,3.40
2019-05-07T14:37:38.823Z,2.83
2019-05-07T14:40:08.017Z,2.37
2019-05-07T14:42:47.346Z,5.70
2019-05-07T14:45:16.064Z,5.30
2019-05-07T14:47:44.904Z,6.50
2019-05-07T14:50:14.333Z,3.07
2019-05-07T14:52:43.405Z,2.60
2019-05-07T14:55:12.849Z,3.63
2019-05-07T14:57:42.109Z,4.57
2019-05-07T15:00:12.273Z,3.33
2019-05-07T15:02:42.132Z,6.97
2019-05-07T15:05:12.043Z,4.33
2019-05-07T15:07:40.937Z,3.17
2019-05-07T15:10:10.856Z,6.03
2019-05-07T15:12:39.541Z,5.50
2019-05-07T15:15:08.545Z,4.93
2019-05-07T15:17:53.706Z,4.13
2019-05-07T15:20:22.649Z,3.23
2019-05-07T15:22:55.475Z,5.57
2019-05-07T15:25:24.128Z,4.60
2019-05-07T15:27:52.929Z,6.40
2019-05-07T15:30:22.063Z,5.60
2019-05-07T15:32:52.136Z,5.40
2019-05-07T15:35:20.719Z,4.80
2019-05-07T15:37:49.172Z,2.40
2019-05-07T15:40:18.434Z,4.43
2019-05-07T15:42:46.913Z,4.83
2019-05-07T15:45:15.395Z,5.33
2019-05-07T15:47:45.507Z,8.33
2019-05-07T15:50:14.446Z,3.17
2019-05-07T15:52:51.436Z,4.20
2019-05-07T15:55:14.759Z,2.70
2019-05-07T15:57:43.227Z,8.20
2019-05-07T16:00:13.981Z,5.37
2019-05-07T16:02:45.387Z,3.07
2019-05-07T16:05:14.923Z,2.47
2019-05-07T16:07:44.787Z,5.10
2019-05-07T16:10:15.210Z,2.80
2019-05-07T16:12:43.863Z,4.23
2019-05-07T16:15:13.908Z,4.37
2019-05-07T16:17:46.764Z,3.37
2019-05-07T16:20:15.681Z,3.17
2019-05-07T16:22:45.825Z,5.63
2019-05-07T16:25:14.330Z,4.23
2019-05-07T16:27:42.794Z,3.67
2019-05-07T16:30:14.353Z,3.10
2019-05-07T16:32:42.600Z,2.80
2019-05-07T16:35:12.516Z,6.33
2019-05-07T16:37:42.883Z,4.20
2019-05-07T16:40:12.766Z,3.10
2019-05-07T16:42:42.827Z,2.57
2019-05-07T16:45:13.241Z,3.63
2019-05-07T16:47:41.912Z,2.40
2019-05-07T16:50:13.011Z,3.33
2019-05-07T16:52:42.038Z,3.83
2019-05-07T16:55:12.322Z,4.47
2019-05-07T16:57:42.540Z,6.50
2019-05-07T17:00:13.401Z,5.33
2019-05-07T17:02:52.479Z,5.47
2019-05-07T17:05:22.799Z,2.53
2019-05-07T17:08:02.575Z,5.47
2019-05-07T17:10:31.768Z,3.63
2019-05-07T17:13:02.744Z,3.37
2019-05-07T17:15:30.747Z,3.00
2019-05-07T17:17:59.266Z,3.90
2019-05-07T17:20:27.979Z,2.37
2019-05-07T17:22:57.179Z,5.23
2019-05-07T17:25:37.419Z,3.53
2019-05-07T17:28:09.567Z,2.43
2019-05-07T17:30:38.789Z,2.83
2019-05-07T17:33:07.553Z,4.77
2019-05-07T17:35:36.066Z,2.83
2019-05-07T17:38:09.119Z,2.63
2019-05-07T17:40:34.706Z,3.20
2019-05-07T17:43:03.506Z,5.97
2019-05-07T17:45:32.902Z,3.67
2019-05-07T17:48:03.151Z,2.80
2019-05-07T17:50:36.897Z,2.63
2019-05-07T17:53:05.558Z,3.67
2019-05-07T17:55:34.011Z,2.77
2019-05-07T17:58:02.496Z,3.17
2019-05-07T18:00:32.847Z,2.83
2019-05-07T18:03:19.225Z,3.70
2019-05-07T18:05:47.790Z,4.63
2019-05-07T18:08:17.124Z,4.13
2019-05-07T18:10:45.592Z,3.50
2019-05-07T18:13:14.107Z,2.73
2019-05-07T18:15:42.919Z,2.70
2019-05-07T18:18:14.437Z,5.60
2019-05-07T18:20:42.917Z,3.63
2019-05-07T18:23:16.706Z,4.57
2019-05-07T18:25:42.859Z,5.03
2019-05-07T18:28:12.497Z,4.17
2019-05-07T18:30:41.068Z,3.10
2019-05-07T18:33:13.933Z,2.53
2019-05-07T18:35:43.615Z,3.53
2019-05-07T18:38:12.106Z,4.33
2019-05-07T18:40:42.138Z,3.20
2019-05-07T18:43:12.259Z,3.90
2019-05-07T18:45:40.906Z,3.77
2019-05-07T18:48:11.748Z,7.40
2019-05-07T18:50:41.822Z,5.57
2019-05-07T18:53:11.991Z,4.77
2019-05-07T18:55:42.181Z,5.90
2019-05-07T18:58:10.372Z,5.77
2019-05-07T19:00:42.361Z,7.63
2019-05-07T19:03:10.753Z,8.73
2019-05-07T19:05:39.223Z,4.53
2019-05-07T19:08:08.776Z,6.83
2019-05-07T19:10:37.741Z,7.03
2019-05-07T19:13:06.405Z,4.63
2019-05-07T19:15:35.071Z,7.27
2019-05-07T19:18:03.522Z,5.57
2019-05-07T19:20:32.756Z,3.33
2019-05-07T19:23:02.664Z,8.97
2019-05-07T19:25:32.636Z,4.43
2019-05-07T19:28:02.052Z,4.97
2019-05-07T19:30:32.619Z,6.87
2019-05-07T19:33:00.830Z,5.03
2019-05-07T19:35:29.546Z,4.43
2019-05-07T19:37:58.061Z,7.00
2019-05-07T19:40:26.545Z,5.43
2019-05-07T19:42:55.065Z,8.30
2019-05-07T19:45:24.549Z,8.93
2019-05-07T19:47:53.158Z,6.50
2019-05-07T19:50:23.308Z,8.03
2019-05-07T19:52:52.278Z,5.43
2019-05-07T19:55:22.020Z,6.27
2019-05-07T19:57:52.334Z,7.90
2019-05-07T20:00:22.969Z,4.77
2019-05-07T20:02:53.191Z,5.80
2019-05-07T20:05:21.740Z,5.10
2019-05-07T20:07:54.778Z,6.23
2019-05-07T20:10:33.010Z,6.23
2019-05-07T20:13:03.109Z,5.90
2019-05-07T20:15:32.531Z,7.20
2019-05-07T20:18:03.036Z,6.33
2019-05-07T20:20:33.177Z,10.90
2019-05-07T20:23:02.549Z,7.37
2019-05-07T20:25:33.274Z,8.47
2019-05-07T20:28:02.161Z,8.87
2019-05-07T20:30:32.810Z,6.77
2019-05-07T20:33:02.953Z,7.87
2019-05-07T20:35:32.582Z,6.77
2019-05-07T20:38:02.938Z,7.30
2019-05-07T20:40:32.473Z,7.10
2019-05-07T20:43:01.972Z,8.47
2019-05-07T20:45:32.010Z,6.63
2019-05-07T20:48:02.578Z,7.57
2019-05-07T20:50:33.101Z,6.27
2019-05-07T20:53:02.047Z,10.60
2019-05-07T20:55:47.072Z,7.57
2019-05-07T20:58:15.519Z,5.97
2019-05-07T21:00:44.014Z,6.80
2019-05-07T21:03:23.373Z,7.20
2019-05-07T21:05:53.382Z,9.13
2019-05-07T21:08:22.833Z,8.83
2019-05-07T21:10:53.603Z,8.70
2019-05-07T21:13:30.142Z,8.67
2019-05-07T21:15:52.679Z,10.37
2019-05-07T21:18:23.227Z,8.37
2019-05-07T21:20:52.960Z,8.17
2019-05-07T21:23:23.131Z,7.10
2019-05-07T21:25:52.824Z,6.37
2019-05-07T21:28:21.798Z,5.47
2019-05-07T21:30:52.127Z,8.40
2019-05-07T21:33:22.612Z,9.00
2019-05-07T21:35:52.339Z,8.67
2019-05-07T21:38:22.335Z,8.00
2019-05-07T21:40:51.135Z,6.53
2019-05-07T21:43:21.857Z,6.23
2019-05-07T21:45:49.783Z,7.83
2019-05-07T21:48:18.271Z,7.90
2019-05-07T21:50:46.751Z,8.50
2019-05-07T21:53:19.276Z,9.77
2019-05-07T21:55:59.956Z,8.13
2019-05-07T21:58:32.915Z,6.50
2019-05-07T22:01:21.968Z,6.10
2019-05-07T22:03:52.467Z,8.47
2019-05-07T22:06:22.778Z,10.17
2019-05-07T22:08:52.556Z,6.57
2019-05-07T22:11:22.940Z,12.30
2019-05-07T22:13:54.412Z,7.17
2019-05-07T22:16:22.299Z,9.73
2019-05-07T22:18:52.159Z,8.03
2019-05-07T22:21:20.787Z,7.60
2019-05-07T22:23:49.269Z,8.63
2019-05-07T22:26:22.858Z,7.47
2019-05-07T22:28:47.991Z,5.33
2019-05-07T22:31:18.111Z,8.07
2019-05-07T22:33:59.282Z,7.20
2019-05-07T22:36:27.174Z,5.73
2019-05-07T22:38:55.644Z,5.83
2019-05-07T22:41:24.103Z,5.60
2019-05-07T22:43:52.826Z,7.43
2019-05-07T22:46:22.251Z,6.93
2019-05-07T22:48:51.085Z,12.20
2019-05-07T22:51:19.541Z,7.07
2019-05-07T22:53:48.021Z,5.70
2019-05-07T22:56:31.041Z,9.13
2019-05-07T22:58:48.696Z,7.67
2019-05-07T23:01:18.780Z,7.87
2019-05-07T23:03:47.428Z,7.27
2019-05-07T23:06:15.889Z,6.87
2019-05-07T23:08:44.362Z,7.60
2019-05-07T23:11:12.980Z,7.60
2019-05-07T23:13:42.739Z,6.63
2019-05-07T23:16:12.522Z,5.40
2019-05-07T23:18:42.855Z,6.77
2019-05-07T23:21:11.739Z,5.80
2019-05-07T23:23:42.269Z,7.53
2019-05-07T23:26:14.271Z,5.70
2019-05-07T23:28:41.869Z,6.67
2019-05-07T23:31:12.157Z,5.60
2019-05-07T23:33:40.838Z,6.43
2019-05-07T23:36:09.291Z,7.23
2019-05-07T23:38:37.772Z,8.03
2019-05-07T23:41:12.639Z,7.13
2019-05-07T23:43:42.410Z,7.63
2019-05-07T23:46:12.851Z,7.13
2019-05-07T23:48:42.713Z,7.20
2019-05-07T23:51:12.629Z,6.83
2019-05-07T23:53:44.150Z,12.13
2019-05-07T23:56:13.126Z,7.53
2019-05-07T23:58:42.046Z,7.77
